Terminal Aerodrome Forecast
Issued by NWS

Home | Current Version | Previous Version | Text Only | Print | Product List | Glossary On
Versions: 1 2 3 4 5 6 7 8 9 10 11 12 13 14 15 16 17 18 19 20 21 22 23 24 25 26 27
000
FTUS43 KMKX 251723
TAFENW
TAF
KENW 251723Z 2518/2618 07017G27KT 5SM -RA BR OVC005
     FM251900 07015G25KT 6SM BR VCSH OVC005
     FM252200 06012KT 2SM -RA BR OVC008
     FM260300 09009KT 1SM -RA BR OVC003=

USA.gov is the U.S. government's official web portal to all federal, state and local government web resources and services.